sensor_id;sensor_type;location;lat;lon;timestamp;P1;durP1;ratioP1;P2;durP2;ratioP2
11488;SDS011;5801;50.804;12.638;2023-04-30T00:00:52;15.27;;;9.35;;
11488;SDS011;5801;50.804;12.638;2023-04-30T00:03:17;15.43;;;8.48;;
11488;SDS011;5801;50.804;12.638;2023-04-30T00:05:43;13.65;;;8.82;;
11488;SDS011;5801;50.804;12.638;2023-04-30T00:08:09;13.40;;;8.60;;
11488;SDS011;5801;50.804;12.638;2023-04-30T00:10:35;17.85;;;9.70;;
11488;SDS011;5801;50.804;12.638;2023-04-30T00:13:01;14.82;;;9.07;;
11488;SDS011;5801;50.804;12.638;2023-04-30T00:15:27;11.95;;;8.50;;
11488;SDS011;5801;50.804;12.638;2023-04-30T00:17:53;14.88;;;9.00;;
11488;SDS011;5801;50.804;12.638;2023-04-30T00:20:19;13.52;;;8.73;;
11488;SDS011;5801;50.804;12.638;2023-04-30T00:22:45;17.70;;;8.15;;
11488;SDS011;5801;50.804;12.638;2023-04-30T00:25:11;12.50;;;8.95;;
11488;SDS011;5801;50.804;12.638;2023-04-30T00:27:37;11.15;;;8.05;;
11488;SDS011;5801;50.804;12.638;2023-04-30T00:30:03;12.73;;;8.43;;
11488;SDS011;5801;50.804;12.638;2023-04-30T00:32:29;13.98;;;8.45;;
11488;SDS011;5801;50.804;12.638;2023-04-30T00:34:55;10.18;;;7.18;;
11488;SDS011;5801;50.804;12.638;2023-04-30T00:37:21;12.48;;;8.00;;
11488;SDS011;5801;50.804;12.638;2023-04-30T00:39:47;13.55;;;8.50;;
11488;SDS011;5801;50.804;12.638;2023-04-30T00:42:12;14.77;;;7.13;;
11488;SDS011;5801;50.804;12.638;2023-04-30T00:44:38;14.43;;;8.35;;
11488;SDS011;5801;50.804;12.638;2023-04-30T00:47:04;12.23;;;8.15;;
11488;SDS011;5801;50.804;12.638;2023-04-30T00:49:30;11.23;;;7.63;;
11488;SDS011;5801;50.804;12.638;2023-04-30T00:51:56;13.57;;;8.32;;
11488;SDS011;5801;50.804;12.638;2023-04-30T00:54:22;10.75;;;7.32;;
11488;SDS011;5801;50.804;12.638;2023-04-30T00:56:48;11.10;;;7.10;;
11488;SDS011;5801;50.804;12.638;2023-04-30T00:59:14;16.38;;;6.97;;
11488;SDS011;5801;50.804;12.638;2023-04-30T01:01:40;14.88;;;7.60;;
11488;SDS011;5801;50.804;12.638;2023-04-30T01:04:07;10.07;;;6.80;;
11488;SDS011;5801;50.804;12.638;2023-04-30T01:06:33;10.25;;;6.20;;
11488;SDS011;5801;50.804;12.638;2023-04-30T01:08:58;10.63;;;6.22;;
11488;SDS011;5801;50.804;12.638;2023-04-30T01:11:27;10.32;;;6.60;;
11488;SDS011;5801;50.804;12.638;2023-04-30T01:14:03;12.60;;;4.90;;
11488;SDS011;5801;50.804;12.638;2023-04-30T01:16:39;8.15;;;5.10;;
11488;SDS011;5801;50.804;12.638;2023-04-30T01:19:08;9.02;;;4.75;;
11488;SDS011;5801;50.804;12.638;2023-04-30T01:21:38;6.70;;;4.53;;
11488;SDS011;5801;50.804;12.638;2023-04-30T01:29:17;8.68;;;3.60;;
11488;SDS011;5801;50.804;12.638;2023-04-30T01:31:44;7.47;;;3.85;;
11488;SDS011;5801;50.804;12.638;2023-04-30T01:34:10;4.65;;;3.58;;
11488;SDS011;5801;50.804;12.638;2023-04-30T01:36:44;7.50;;;3.72;;
11488;SDS011;5801;50.804;12.638;2023-04-30T01:49:38;4.88;;;3.67;;
11488;SDS011;5801;50.804;12.638;2023-04-30T01:54:44;6.13;;;3.63;;
11488;SDS011;5801;50.804;12.638;2023-04-30T01:57:12;6.15;;;4.15;;
11488;SDS011;5801;50.804;12.638;2023-04-30T01:59:39;5.82;;;4.07;;
11488;SDS011;5801;50.804;12.638;2023-04-30T02:02:05;6.50;;;4.05;;
11488;SDS011;5801;50.804;12.638;2023-04-30T02:04:31;6.47;;;3.90;;
11488;SDS011;5801;50.804;12.638;2023-04-30T02:06:57;6.53;;;3.75;;
11488;SDS011;5801;50.804;12.638;2023-04-30T02:09:24;5.93;;;3.50;;
11488;SDS011;5801;50.804;12.638;2023-04-30T02:11:49;4.30;;;3.45;;
11488;SDS011;5801;50.804;12.638;2023-04-30T02:14:15;5.82;;;3.42;;
11488;SDS011;5801;50.804;12.638;2023-04-30T02:16:41;5.90;;;2.85;;
11488;SDS011;5801;50.804;12.638;2023-04-30T02:19:07;11.18;;;3.55;;
11488;SDS011;5801;50.804;12.638;2023-04-30T02:21:33;4.88;;;3.20;;
11488;SDS011;5801;50.804;12.638;2023-04-30T02:23:59;4.57;;;3.20;;
11488;SDS011;5801;50.804;12.638;2023-04-30T02:26:25;4.22;;;2.90;;
11488;SDS011;5801;50.804;12.638;2023-04-30T02:28:51;7.13;;;3.92;;
11488;SDS011;5801;50.804;12.638;2023-04-30T02:31:17;10.35;;;3.88;;
11488;SDS011;5801;50.804;12.638;2023-04-30T02:33:43;9.00;;;4.25;;
11488;SDS011;5801;50.804;12.638;2023-04-30T02:36:09;7.70;;;3.55;;
11488;SDS011;5801;50.804;12.638;2023-04-30T02:38:35;4.45;;;2.85;;
11488;SDS011;5801;50.804;12.638;2023-04-30T02:41:00;7.22;;;3.30;;
11488;SDS011;5801;50.804;12.638;2023-04-30T02:43:27;7.03;;;3.88;;
11488;SDS011;5801;50.804;12.638;2023-04-30T02:45:53;5.03;;;3.58;;
11488;SDS011;5801;50.804;12.638;2023-04-30T02:48:19;7.30;;;3.75;;
11488;SDS011;5801;50.804;12.638;2023-04-30T02:50:45;11.60;;;4.53;;
11488;SDS011;5801;50.804;12.638;2023-04-30T02:53:11;5.60;;;4.03;;
11488;SDS011;5801;50.804;12.638;2023-04-30T02:55:37;5.03;;;3.97;;
11488;SDS011;5801;50.804;12.638;2023-04-30T02:58:02;5.25;;;3.80;;
11488;SDS011;5801;50.804;12.638;2023-04-30T03:00:28;3.85;;;3.47;;
11488;SDS011;5801;50.804;12.638;2023-04-30T03:02:54;5.22;;;3.63;;
11488;SDS011;5801;50.804;12.638;2023-04-30T03:05:20;4.20;;;3.70;;
11488;SDS011;5801;50.804;12.638;2023-04-30T03:07:46;4.57;;;3.47;;
11488;SDS011;5801;50.804;12.638;2023-04-30T03:10:12;5.80;;;3.58;;
11488;SDS011;5801;50.804;12.638;2023-04-30T03:12:38;4.28;;;3.65;;
11488;SDS011;5801;50.804;12.638;2023-04-30T03:15:05;7.00;;;3.78;;
11488;SDS011;5801;50.804;12.638;2023-04-30T03:17:31;5.18;;;3.88;;
11488;SDS011;5801;50.804;12.638;2023-04-30T03:19:57;5.35;;;3.65;;
11488;SDS011;5801;50.804;12.638;2023-04-30T03:22:23;6.57;;;3.55;;
11488;SDS011;5801;50.804;12.638;2023-04-30T03:24:50;6.50;;;3.65;;
11488;SDS011;5801;50.804;12.638;2023-04-30T03:27:16;6.57;;;4.00;;
11488;SDS011;5801;50.804;12.638;2023-04-30T03:29:42;4.95;;;3.55;;
11488;SDS011;5801;50.804;12.638;2023-04-30T03:32:08;6.13;;;3.95;;
11488;SDS011;5801;50.804;12.638;2023-04-30T03:34:34;6.35;;;3.97;;
11488;SDS011;5801;50.804;12.638;2023-04-30T03:37:00;7.03;;;3.30;;
11488;SDS011;5801;50.804;12.638;2023-04-30T03:39:26;4.88;;;3.33;;
11488;SDS011;5801;50.804;12.638;2023-04-30T03:41:52;3.85;;;2.90;;
11488;SDS011;5801;50.804;12.638;2023-04-30T03:44:17;5.05;;;3.28;;
11488;SDS011;5801;50.804;12.638;2023-04-30T03:46:43;6.65;;;3.45;;
11488;SDS011;5801;50.804;12.638;2023-04-30T03:49:09;4.57;;;3.45;;
11488;SDS011;5801;50.804;12.638;2023-04-30T03:51:36;3.90;;;2.88;;
11488;SDS011;5801;50.804;12.638;2023-04-30T03:54:05;8.23;;;2.85;;
11488;SDS011;5801;50.804;12.638;2023-04-30T03:56:32;6.78;;;3.30;;
11488;SDS011;5801;50.804;12.638;2023-04-30T03:58:58;6.68;;;2.90;;
11488;SDS011;5801;50.804;12.638;2023-04-30T04:01:24;5.85;;;3.60;;
11488;SDS011;5801;50.804;12.638;2023-04-30T04:03:50;3.80;;;2.97;;
11488;SDS011;5801;50.804;12.638;2023-04-30T04:06:16;6.60;;;3.10;;
11488;SDS011;5801;50.804;12.638;2023-04-30T04:08:42;4.78;;;3.17;;
11488;SDS011;5801;50.804;12.638;2023-04-30T04:11:09;6.40;;;3.85;;
11488;SDS011;5801;50.804;12.638;2023-04-30T04:13:36;7.68;;;2.97;;
11488;SDS011;5801;50.804;12.638;2023-04-30T04:16:02;4.55;;;3.38;;
11488;SDS011;5801;50.804;12.638;2023-04-30T04:18:28;5.25;;;3.42;;
11488;SDS011;5801;50.804;12.638;2023-04-30T04:20:54;15.27;;;6.00;;
11488;SDS011;5801;50.804;12.638;2023-04-30T04:23:21;37.30;;;17.80;;
11488;SDS011;5801;50.804;12.638;2023-04-30T04:25:46;52.42;;;18.13;;
11488;SDS011;5801;50.804;12.638;2023-04-30T04:28:16;14.13;;;6.90;;
11488;SDS011;5801;50.804;12.638;2023-04-30T04:30:42;6.85;;;4.22;;
11488;SDS011;5801;50.804;12.638;2023-04-30T04:33:08;8.18;;;3.95;;
11488;SDS011;5801;50.804;12.638;2023-04-30T04:35:34;5.22;;;3.22;;
11488;SDS011;5801;50.804;12.638;2023-04-30T04:38:01;5.15;;;3.33;;
11488;SDS011;5801;50.804;12.638;2023-04-30T04:40:27;6.18;;;3.75;;
11488;SDS011;5801;50.804;12.638;2023-04-30T04:42:52;8.32;;;4.47;;
11488;SDS011;5801;50.804;12.638;2023-04-30T04:45:19;5.65;;;3.67;;
11488;SDS011;5801;50.804;12.638;2023-04-30T04:47:45;5.20;;;3.38;;
11488;SDS011;5801;50.804;12.638;2023-04-30T04:50:12;4.82;;;3.58;;
11488;SDS011;5801;50.804;12.638;2023-04-30T04:52:38;5.68;;;3.58;;
11488;SDS011;5801;50.804;12.638;2023-04-30T04:55:04;7.32;;;3.65;;
11488;SDS011;5801;50.804;12.638;2023-04-30T04:57:31;4.07;;;2.92;;
11488;SDS011;5801;50.804;12.638;2023-04-30T04:59:57;5.38;;;3.17;;
11488;SDS011;5801;50.804;12.638;2023-04-30T05:02:22;5.05;;;3.38;;
11488;SDS011;5801;50.804;12.638;2023-04-30T05:04:49;4.05;;;3.17;;
11488;SDS011;5801;50.804;12.638;2023-04-30T05:07:15;6.22;;;3.30;;
11488;SDS011;5801;50.804;12.638;2023-04-30T05:09:41;4.72;;;3.38;;
11488;SDS011;5801;50.804;12.638;2023-04-30T05:12:07;5.18;;;2.97;;
11488;SDS011;5801;50.804;12.638;2023-04-30T05:14:33;3.00;;;2.30;;
11488;SDS011;5801;50.804;12.638;2023-04-30T05:17:01;3.25;;;2.75;;
11488;SDS011;5801;50.804;12.638;2023-04-30T05:19:27;2.92;;;2.63;;
11488;SDS011;5801;50.804;12.638;2023-04-30T05:21:52;3.78;;;2.80;;
11488;SDS011;5801;50.804;12.638;2023-04-30T05:24:18;5.47;;;2.88;;
11488;SDS011;5801;50.804;12.638;2023-04-30T05:26:44;6.75;;;3.40;;
11488;SDS011;5801;50.804;12.638;2023-04-30T05:29:11;3.72;;;2.53;;
11488;SDS011;5801;50.804;12.638;2023-04-30T05:31:37;8.13;;;3.10;;
11488;SDS011;5801;50.804;12.638;2023-04-30T05:34:03;5.05;;;2.58;;
11488;SDS011;5801;50.804;12.638;2023-04-30T05:36:28;6.28;;;2.90;;
11488;SDS011;5801;50.804;12.638;2023-04-30T05:38:54;12.05;;;3.25;;
11488;SDS011;5801;50.804;12.638;2023-04-30T05:41:20;5.05;;;2.92;;
11488;SDS011;5801;50.804;12.638;2023-04-30T05:43:46;9.07;;;4.25;;
11488;SDS011;5801;50.804;12.638;2023-04-30T05:46:12;6.70;;;3.40;;
11488;SDS011;5801;50.804;12.638;2023-04-30T05:48:38;6.88;;;2.97;;
11488;SDS011;5801;50.804;12.638;2023-04-30T05:51:04;5.65;;;3.00;;
11488;SDS011;5801;50.804;12.638;2023-04-30T05:53:30;10.15;;;3.88;;
11488;SDS011;5801;50.804;12.638;2023-04-30T05:55:56;8.13;;;3.30;;
11488;SDS011;5801;50.804;12.638;2023-04-30T05:58:22;5.22;;;3.13;;
11488;SDS011;5801;50.804;12.638;2023-04-30T06:00:49;4.35;;;3.13;;
11488;SDS011;5801;50.804;12.638;2023-04-30T06:03:18;5.43;;;3.17;;
11488;SDS011;5801;50.804;12.638;2023-04-30T06:05:45;3.20;;;2.72;;
11488;SDS011;5801;50.804;12.638;2023-04-30T06:08:11;5.22;;;3.30;;
11488;SDS011;5801;50.804;12.638;2023-04-30T06:10:37;10.60;;;2.92;;
11488;SDS011;5801;50.804;12.638;2023-04-30T06:13:04;7.45;;;3.58;;
11488;SDS011;5801;50.804;12.638;2023-04-30T06:15:29;5.03;;;3.38;;
11488;SDS011;5801;50.804;12.638;2023-04-30T06:17:55;7.88;;;3.95;;
11488;SDS011;5801;50.804;12.638;2023-04-30T06:20:21;5.60;;;3.90;;
11488;SDS011;5801;50.804;12.638;2023-04-30T06:22:47;5.80;;;3.72;;
11488;SDS011;5801;50.804;12.638;2023-04-30T06:25:13;7.85;;;4.25;;
11488;SDS011;5801;50.804;12.638;2023-04-30T06:27:39;8.35;;;3.75;;
11488;SDS011;5801;50.804;12.638;2023-04-30T06:30:05;8.02;;;4.20;;
11488;SDS011;5801;50.804;12.638;2023-04-30T06:32:31;9.07;;;4.13;;
11488;SDS011;5801;50.804;12.638;2023-04-30T06:34:57;9.05;;;5.93;;
11488;SDS011;5801;50.804;12.638;2023-04-30T06:37:23;6.25;;;3.28;;
11488;SDS011;5801;50.804;12.638;2023-04-30T06:39:49;8.57;;;3.65;;
11488;SDS011;5801;50.804;12.638;2023-04-30T06:42:15;4.80;;;3.40;;
11488;SDS011;5801;50.804;12.638;2023-04-30T06:44:41;4.93;;;3.42;;
11488;SDS011;5801;50.804;12.638;2023-04-30T06:47:07;8.38;;;3.80;;
11488;SDS011;5801;50.804;12.638;2023-04-30T06:49:33;4.20;;;3.08;;
11488;SDS011;5801;50.804;12.638;2023-04-30T06:51:59;6.72;;;3.10;;
11488;SDS011;5801;50.804;12.638;2023-04-30T06:54:25;6.60;;;3.95;;
11488;SDS011;5801;50.804;12.638;2023-04-30T06:56:51;6.50;;;3.80;;
11488;SDS011;5801;50.804;12.638;2023-04-30T06:59:17;6.25;;;3.17;;
11488;SDS011;5801;50.804;12.638;2023-04-30T07:01:44;5.55;;;2.70;;
11488;SDS011;5801;50.804;12.638;2023-04-30T07:04:10;6.50;;;2.95;;
11488;SDS011;5801;50.804;12.638;2023-04-30T07:06:36;6.30;;;3.03;;
11488;SDS011;5801;50.804;12.638;2023-04-30T07:09:02;8.52;;;3.65;;
11488;SDS011;5801;50.804;12.638;2023-04-30T07:11:28;6.32;;;3.78;;
11488;SDS011;5801;50.804;12.638;2023-04-30T07:13:53;8.48;;;4.00;;
11488;SDS011;5801;50.804;12.638;2023-04-30T07:16:20;5.97;;;3.67;;
11488;SDS011;5801;50.804;12.638;2023-04-30T07:18:46;7.25;;;3.50;;
11488;SDS011;5801;50.804;12.638;2023-04-30T07:21:13;6.35;;;3.00;;
11488;SDS011;5801;50.804;12.638;2023-04-30T07:23:39;5.68;;;3.10;;
11488;SDS011;5801;50.804;12.638;2023-04-30T07:26:06;7.47;;;3.97;;
11488;SDS011;5801;50.804;12.638;2023-04-30T07:28:32;8.55;;;3.60;;
11488;SDS011;5801;50.804;12.638;2023-04-30T07:30:58;15.77;;;9.88;;
11488;SDS011;5801;50.804;12.638;2023-04-30T07:33:24;13.20;;;4.32;;
11488;SDS011;5801;50.804;12.638;2023-04-30T07:35:50;5.95;;;3.60;;
11488;SDS011;5801;50.804;12.638;2023-04-30T07:38:16;8.98;;;4.30;;
11488;SDS011;5801;50.804;12.638;2023-04-30T07:40:43;5.53;;;3.50;;
11488;SDS011;5801;50.804;12.638;2023-04-30T07:43:09;4.97;;;3.42;;
11488;SDS011;5801;50.804;12.638;2023-04-30T07:45:35;5.07;;;3.33;;
11488;SDS011;5801;50.804;12.638;2023-04-30T07:48:02;4.50;;;3.55;;
11488;SDS011;5801;50.804;12.638;2023-04-30T07:50:29;8.75;;;3.70;;
11488;SDS011;5801;50.804;12.638;2023-04-30T07:52:57;4.75;;;3.38;;
11488;SDS011;5801;50.804;12.638;2023-04-30T07:55:23;5.35;;;3.55;;
11488;SDS011;5801;50.804;12.638;2023-04-30T07:57:49;8.13;;;4.75;;
11488;SDS011;5801;50.804;12.638;2023-04-30T08:00:15;7.78;;;4.85;;
11488;SDS011;5801;50.804;12.638;2023-04-30T08:02:41;4.50;;;3.20;;
11488;SDS011;5801;50.804;12.638;2023-04-30T08:05:12;11.20;;;4.07;;
11488;SDS011;5801;50.804;12.638;2023-04-30T08:07:38;9.05;;;3.80;;
11488;SDS011;5801;50.804;12.638;2023-04-30T08:10:04;7.07;;;3.53;;
11488;SDS011;5801;50.804;12.638;2023-04-30T08:12:30;8.70;;;3.40;;
11488;SDS011;5801;50.804;12.638;2023-04-30T08:15:01;5.78;;;3.60;;
11488;SDS011;5801;50.804;12.638;2023-04-30T08:17:28;7.40;;;4.10;;
11488;SDS011;5801;50.804;12.638;2023-04-30T08:19:54;11.57;;;4.15;;
11488;SDS011;5801;50.804;12.638;2023-04-30T08:22:19;9.35;;;4.22;;
11488;SDS011;5801;50.804;12.638;2023-04-30T08:24:46;5.00;;;3.63;;
11488;SDS011;5801;50.804;12.638;2023-04-30T08:27:11;6.72;;;4.20;;
11488;SDS011;5801;50.804;12.638;2023-04-30T08:29:37;6.53;;;3.50;;
11488;SDS011;5801;50.804;12.638;2023-04-30T08:32:03;4.95;;;3.22;;
11488;SDS011;5801;50.804;12.638;2023-04-30T08:34:30;5.88;;;3.33;;
11488;SDS011;5801;50.804;12.638;2023-04-30T08:36:56;6.80;;;3.47;;
11488;SDS011;5801;50.804;12.638;2023-04-30T08:39:23;5.55;;;3.40;;
11488;SDS011;5801;50.804;12.638;2023-04-30T08:41:51;13.32;;;3.95;;
11488;SDS011;5801;50.804;12.638;2023-04-30T08:44:20;6.05;;;3.08;;
11488;SDS011;5801;50.804;12.638;2023-04-30T08:46:48;9.15;;;3.20;;
11488;SDS011;5801;50.804;12.638;2023-04-30T08:49:15;3.83;;;3.35;;
11488;SDS011;5801;50.804;12.638;2023-04-30T08:51:41;3.53;;;2.83;;
11488;SDS011;5801;50.804;12.638;2023-04-30T08:54:08;4.68;;;2.88;;
11488;SDS011;5801;50.804;12.638;2023-04-30T08:56:35;13.32;;;4.22;;
11488;SDS011;5801;50.804;12.638;2023-04-30T08:59:01;5.82;;;3.20;;
11488;SDS011;5801;50.804;12.638;2023-04-30T09:01:28;6.93;;;3.85;;
11488;SDS011;5801;50.804;12.638;2023-04-30T09:03:54;4.72;;;3.42;;
11488;SDS011;5801;50.804;12.638;2023-04-30T09:06:20;5.72;;;3.05;;
11488;SDS011;5801;50.804;12.638;2023-04-30T09:08:47;6.25;;;3.15;;
11488;SDS011;5801;50.804;12.638;2023-04-30T09:11:26;5.88;;;3.53;;
11488;SDS011;5801;50.804;12.638;2023-04-30T09:13:54;8.23;;;3.25;;
11488;SDS011;5801;50.804;12.638;2023-04-30T09:16:21;8.25;;;3.15;;
11488;SDS011;5801;50.804;12.638;2023-04-30T09:18:47;5.25;;;2.70;;
11488;SDS011;5801;50.804;12.638;2023-04-30T09:21:13;4.22;;;3.20;;
11488;SDS011;5801;50.804;12.638;2023-04-30T09:23:55;4.97;;;2.85;;
11488;SDS011;5801;50.804;12.638;2023-04-30T09:26:25;5.93;;;2.85;;
11488;SDS011;5801;50.804;12.638;2023-04-30T09:28:54;5.68;;;2.50;;
11488;SDS011;5801;50.804;12.638;2023-04-30T09:31:21;2.90;;;2.38;;
11488;SDS011;5801;50.804;12.638;2023-04-30T09:33:48;7.88;;;2.40;;
11488;SDS011;5801;50.804;12.638;2023-04-30T09:36:14;4.63;;;2.20;;
11488;SDS011;5801;50.804;12.638;2023-04-30T09:38:40;3.15;;;2.63;;
11488;SDS011;5801;50.804;12.638;2023-04-30T09:41:06;5.68;;;2.53;;
11488;SDS011;5801;50.804;12.638;2023-04-30T09:43:45;5.00;;;2.45;;
11488;SDS011;5801;50.804;12.638;2023-04-30T09:46:11;4.20;;;2.58;;
11488;SDS011;5801;50.804;12.638;2023-04-30T09:48:40;4.13;;;2.63;;
11488;SDS011;5801;50.804;12.638;2023-04-30T09:51:06;2.67;;;2.15;;
11488;SDS011;5801;50.804;12.638;2023-04-30T09:53:32;4.80;;;2.53;;
11488;SDS011;5801;50.804;12.638;2023-04-30T09:55:58;8.02;;;3.50;;
11488;SDS011;5801;50.804;12.638;2023-04-30T09:58:27;3.03;;;2.47;;
11488;SDS011;5801;50.804;12.638;2023-04-30T10:00:53;8.20;;;4.20;;
11488;SDS011;5801;50.804;12.638;2023-04-30T10:03:21;9.68;;;5.32;;
11488;SDS011;5801;50.804;12.638;2023-04-30T10:05:48;12.48;;;4.60;;
11488;SDS011;5801;50.804;12.638;2023-04-30T10:08:32;2.75;;;2.55;;
11488;SDS011;5801;50.804;12.638;2023-04-30T10:11:03;9.32;;;3.70;;
11488;SDS011;5801;50.804;12.638;2023-04-30T10:13:42;8.02;;;3.50;;
11488;SDS011;5801;50.804;12.638;2023-04-30T10:16:24;5.38;;;2.92;;
11488;SDS011;5801;50.804;12.638;2023-04-30T10:18:52;3.35;;;2.40;;
11488;SDS011;5801;50.804;12.638;2023-04-30T10:21:19;3.92;;;2.75;;
11488;SDS011;5801;50.804;12.638;2023-04-30T10:23:47;6.18;;;3.95;;
11488;SDS011;5801;50.804;12.638;2023-04-30T10:26:13;8.80;;;2.95;;
11488;SDS011;5801;50.804;12.638;2023-04-30T10:28:40;6.75;;;3.28;;
11488;SDS011;5801;50.804;12.638;2023-04-30T10:31:07;6.47;;;3.03;;
11488;SDS011;5801;50.804;12.638;2023-04-30T10:33:41;5.32;;;3.03;;
11488;SDS011;5801;50.804;12.638;2023-04-30T10:36:13;5.07;;;2.72;;
11488;SDS011;5801;50.804;12.638;2023-04-30T10:38:43;5.30;;;2.50;;
11488;SDS011;5801;50.804;12.638;2023-04-30T10:41:09;6.10;;;3.17;;
11488;SDS011;5801;50.804;12.638;2023-04-30T10:43:35;6.15;;;2.78;;
11488;SDS011;5801;50.804;12.638;2023-04-30T10:46:01;6.50;;;3.47;;
11488;SDS011;5801;50.804;12.638;2023-04-30T10:48:28;4.63;;;3.78;;
11488;SDS011;5801;50.804;12.638;2023-04-30T10:50:55;4.68;;;3.22;;
11488;SDS011;5801;50.804;12.638;2023-04-30T10:53:22;5.03;;;3.15;;
11488;SDS011;5801;50.804;12.638;2023-04-30T10:55:53;4.28;;;3.10;;
11488;SDS011;5801;50.804;12.638;2023-04-30T10:58:34;7.80;;;3.03;;
11488;SDS011;5801;50.804;12.638;2023-04-30T11:03:28;3.60;;;2.78;;
11488;SDS011;5801;50.804;12.638;2023-04-30T11:05:54;4.20;;;3.10;;
11488;SDS011;5801;50.804;12.638;2023-04-30T11:08:36;4.00;;;2.75;;
11488;SDS011;5801;50.804;12.638;2023-04-30T11:11:02;3.13;;;2.83;;
11488;SDS011;5801;50.804;12.638;2023-04-30T11:13:37;7.88;;;2.72;;
11488;SDS011;5801;50.804;12.638;2023-04-30T11:16:04;4.50;;;2.58;;
11488;SDS011;5801;50.804;12.638;2023-04-30T11:18:31;7.13;;;2.67;;
11488;SDS011;5801;50.804;12.638;2023-04-30T11:20:57;4.25;;;2.55;;
11488;SDS011;5801;50.804;12.638;2023-04-30T11:23:24;3.00;;;2.70;;
11488;SDS011;5801;50.804;12.638;2023-04-30T11:25:52;7.18;;;3.20;;
11488;SDS011;5801;50.804;12.638;2023-04-30T11:28:25;6.63;;;3.05;;
11488;SDS011;5801;50.804;12.638;2023-04-30T11:30:55;4.88;;;2.70;;
11488;SDS011;5801;50.804;12.638;2023-04-30T11:33:23;5.88;;;2.90;;
11488;SDS011;5801;50.804;12.638;2023-04-30T11:35:49;6.80;;;2.92;;
11488;SDS011;5801;50.804;12.638;2023-04-30T11:38:16;6.05;;;3.50;;
11488;SDS011;5801;50.804;12.638;2023-04-30T11:40:43;3.40;;;2.92;;
11488;SDS011;5801;50.804;12.638;2023-04-30T11:43:19;4.18;;;2.70;;
11488;SDS011;5801;50.804;12.638;2023-04-30T11:45:57;4.97;;;3.08;;
11488;SDS011;5801;50.804;12.638;2023-04-30T11:48:23;5.38;;;3.90;;
11488;SDS011;5801;50.804;12.638;2023-04-30T11:50:49;5.22;;;3.33;;
11488;SDS011;5801;50.804;12.638;2023-04-30T11:53:16;10.68;;;4.30;;
11488;SDS011;5801;50.804;12.638;2023-04-30T11:55:42;5.40;;;3.58;;
11488;SDS011;5801;50.804;12.638;2023-04-30T11:58:08;3.90;;;3.50;;
11488;SDS011;5801;50.804;12.638;2023-04-30T12:00:34;6.80;;;4.35;;
11488;SDS011;5801;50.804;12.638;2023-04-30T12:03:00;7.35;;;4.00;;
11488;SDS011;5801;50.804;12.638;2023-04-30T12:05:29;4.50;;;3.80;;
11488;SDS011;5801;50.804;12.638;2023-04-30T12:07:56;7.72;;;3.92;;
11488;SDS011;5801;50.804;12.638;2023-04-30T12:10:24;4.50;;;3.55;;
11488;SDS011;5801;50.804;12.638;2023-04-30T12:12:50;4.07;;;3.63;;
11488;SDS011;5801;50.804;12.638;2023-04-30T12:15:20;4.90;;;3.42;;
11488;SDS011;5801;50.804;12.638;2023-04-30T12:17:56;7.25;;;3.83;;
11488;SDS011;5801;50.804;12.638;2023-04-30T12:20:23;7.13;;;3.55;;
11488;SDS011;5801;50.804;12.638;2023-04-30T12:22:49;6.22;;;3.55;;
11488;SDS011;5801;50.804;12.638;2023-04-30T12:25:17;9.77;;;3.60;;
11488;SDS011;5801;50.804;12.638;2023-04-30T12:27:47;5.85;;;3.50;;
11488;SDS011;5801;50.804;12.638;2023-04-30T12:30:13;3.58;;;3.25;;
11488;SDS011;5801;50.804;12.638;2023-04-30T12:35:05;6.43;;;3.20;;
11488;SDS011;5801;50.804;12.638;2023-04-30T12:37:32;5.95;;;3.92;;
11488;SDS011;5801;50.804;12.638;2023-04-30T12:39:58;7.25;;;4.22;;
11488;SDS011;5801;50.804;12.638;2023-04-30T12:42:24;10.55;;;3.30;;
11488;SDS011;5801;50.804;12.638;2023-04-30T12:44:50;4.55;;;3.00;;
11488;SDS011;5801;50.804;12.638;2023-04-30T12:47:16;6.82;;;3.30;;
11488;SDS011;5801;50.804;12.638;2023-04-30T12:49:43;6.13;;;2.88;;
11488;SDS011;5801;50.804;12.638;2023-04-30T12:52:12;5.90;;;3.30;;
11488;SDS011;5801;50.804;12.638;2023-04-30T12:54:39;8.93;;;2.95;;
11488;SDS011;5801;50.804;12.638;2023-04-30T12:59:36;4.18;;;2.90;;
11488;SDS011;5801;50.804;12.638;2023-04-30T13:02:09;5.72;;;3.35;;
11488;SDS011;5801;50.804;12.638;2023-04-30T13:04:35;3.88;;;3.58;;
11488;SDS011;5801;50.804;12.638;2023-04-30T13:07:02;3.88;;;2.92;;
11488;SDS011;5801;50.804;12.638;2023-04-30T13:09:28;3.17;;;2.60;;
11488;SDS011;5801;50.804;12.638;2023-04-30T13:11:54;3.80;;;2.50;;
11488;SDS011;5801;50.804;12.638;2023-04-30T13:14:20;10.05;;;3.95;;
11488;SDS011;5801;50.804;12.638;2023-04-30T13:16:46;9.07;;;3.40;;
11488;SDS011;5801;50.804;12.638;2023-04-30T13:19:12;4.43;;;2.97;;
11488;SDS011;5801;50.804;12.638;2023-04-30T13:21:39;6.22;;;3.15;;
11488;SDS011;5801;50.804;12.638;2023-04-30T13:24:05;6.22;;;3.38;;
11488;SDS011;5801;50.804;12.638;2023-04-30T13:26:31;8.07;;;3.78;;
11488;SDS011;5801;50.804;12.638;2023-04-30T13:28:57;4.10;;;3.50;;
11488;SDS011;5801;50.804;12.638;2023-04-30T13:31:23;5.03;;;3.88;;
11488;SDS011;5801;50.804;12.638;2023-04-30T13:33:49;6.13;;;3.78;;
11488;SDS011;5801;50.804;12.638;2023-04-30T13:36:15;5.05;;;3.90;;
11488;SDS011;5801;50.804;12.638;2023-04-30T13:38:41;6.07;;;3.83;;
11488;SDS011;5801;50.804;12.638;2023-04-30T13:41:07;11.35;;;3.88;;
11488;SDS011;5801;50.804;12.638;2023-04-30T13:43:33;5.50;;;3.67;;
11488;SDS011;5801;50.804;12.638;2023-04-30T13:46:02;3.63;;;3.17;;
11488;SDS011;5801;50.804;12.638;2023-04-30T13:48:28;3.35;;;3.05;;
11488;SDS011;5801;50.804;12.638;2023-04-30T13:50:54;6.55;;;3.25;;
11488;SDS011;5801;50.804;12.638;2023-04-30T13:53:20;3.30;;;2.83;;
11488;SDS011;5801;50.804;12.638;2023-04-30T13:55:46;8.20;;;2.67;;
11488;SDS011;5801;50.804;12.638;2023-04-30T13:58:12;16.13;;;2.90;;
11488;SDS011;5801;50.804;12.638;2023-04-30T14:00:38;4.57;;;2.72;;
11488;SDS011;5801;50.804;12.638;2023-04-30T14:03:05;3.35;;;3.00;;
11488;SDS011;5801;50.804;12.638;2023-04-30T14:05:30;3.00;;;2.70;;
11488;SDS011;5801;50.804;12.638;2023-04-30T14:07:56;4.45;;;2.55;;
11488;SDS011;5801;50.804;12.638;2023-04-30T14:10:22;4.07;;;2.40;;
11488;SDS011;5801;50.804;12.638;2023-04-30T14:12:48;4.30;;;2.58;;
11488;SDS011;5801;50.804;12.638;2023-04-30T14:15:15;5.78;;;2.28;;
11488;SDS011;5801;50.804;12.638;2023-04-30T14:17:40;3.95;;;2.33;;
11488;SDS011;5801;50.804;12.638;2023-04-30T14:20:07;2.58;;;2.00;;
11488;SDS011;5801;50.804;12.638;2023-04-30T14:22:33;3.03;;;2.22;;
11488;SDS011;5801;50.804;12.638;2023-04-30T14:25:02;4.50;;;2.15;;
11488;SDS011;5801;50.804;12.638;2023-04-30T14:27:28;2.40;;;1.83;;
11488;SDS011;5801;50.804;12.638;2023-04-30T14:29:54;7.35;;;2.08;;
11488;SDS011;5801;50.804;12.638;2023-04-30T14:32:20;3.70;;;2.13;;
11488;SDS011;5801;50.804;12.638;2023-04-30T14:34:46;2.60;;;1.75;;
11488;SDS011;5801;50.804;12.638;2023-04-30T14:37:11;4.95;;;1.70;;
11488;SDS011;5801;50.804;12.638;2023-04-30T14:39:37;2.72;;;1.90;;
11488;SDS011;5801;50.804;12.638;2023-04-30T14:42:03;3.05;;;2.05;;
11488;SDS011;5801;50.804;12.638;2023-04-30T14:44:29;2.20;;;1.58;;
11488;SDS011;5801;50.804;12.638;2023-04-30T14:46:56;4.80;;;1.95;;
11488;SDS011;5801;50.804;12.638;2023-04-30T14:49:22;4.78;;;1.83;;
11488;SDS011;5801;50.804;12.638;2023-04-30T14:51:47;4.55;;;1.70;;
11488;SDS011;5801;50.804;12.638;2023-04-30T14:54:13;9.18;;;2.20;;
11488;SDS011;5801;50.804;12.638;2023-04-30T14:56:40;4.00;;;1.80;;
11488;SDS011;5801;50.804;12.638;2023-04-30T14:59:06;5.88;;;1.90;;
11488;SDS011;5801;50.804;12.638;2023-04-30T15:01:32;6.90;;;1.95;;
11488;SDS011;5801;50.804;12.638;2023-04-30T15:03:58;4.18;;;1.63;;
11488;SDS011;5801;50.804;12.638;2023-04-30T15:06:24;3.75;;;1.73;;
11488;SDS011;5801;50.804;12.638;2023-04-30T15:08:50;3.38;;;1.77;;